Time;durP1;ratioP1;P1;durP2;ratioP2;P2;SDS_P1;SDS_P2;PMS_P1;PMS_P2;Temp;Humidity;BMP_temperature;BMP_pressure;BME280_temperature;BME280_humidity;BME280_pressure;Samples;Min_cycle;Max_cycle;Signal;HPM_P1;HPM_P2
2021/04/15 00:00:52;;;;;;;7.32;6.18;;;;;;;11.18;49.26;101954.19;4955340;28;20407;-58
2021/04/15 00:03:24;;;;;;;7.20;5.72;;;;;;;11.16;49.37;101950.78;4954947;28;20047;-59
2021/04/15 00:05:53;;;;;;;7.15;5.90;;;;;;;11.15;49.45;101946.44;4955340;28;20048;-59
2021/04/15 00:08:20;;;;;;;8.07;6.63;;;;;;;11.15;49.38;101946.44;4954554;28;20463;-59
2021/04/15 00:10:51;;;;;;;6.72;5.72;;;;;;;11.14;49.46;101938.63;4955002;28;20554;-59
2021/04/15 00:13:24;;;;;;;7.57;5.93;;;;;;;11.13;49.46;101937.75;4954846;28;20059;-58
2021/04/15 00:15:51;;;;;;;6.70;5.78;;;;;;;11.11;49.45;101929.94;4954876;28;20496;-58
2021/04/15 00:18:18;;;;;;;7.30;6.38;;;;;;;11.10;49.39;101933.47;4954734;28;20044;-59
2021/04/15 00:20:45;;;;;;;8.27;6.78;;;;;;;11.08;49.36;101927.44;4954812;28;20130;-58
2021/04/15 00:23:11;;;;;;;9.48;6.80;;;;;;;11.06;49.60;101926.66;4954675;28;20047;-59
2021/04/15 00:25:38;;;;;;;7.30;6.13;;;;;;;11.05;49.36;101921.47;4954181;28;20052;-59
2021/04/15 00:28:05;;;;;;;8.73;6.28;;;;;;;11.04;49.45;101919.75;4954669;28;20043;-59
2021/04/15 00:30:31;;;;;;;8.88;6.93;;;;;;;11.01;49.62;101922.47;4954220;28;20047;-59
2021/04/15 00:32:57;;;;;;;8.60;6.45;;;;;;;10.99;49.58;101911.19;4954481;28;20091;-59
2021/04/15 00:35:24;;;;;;;9.48;6.47;;;;;;;10.96;49.80;101912.16;4954707;28;20047;-59
2021/04/15 00:37:50;;;;;;;7.35;6.57;;;;;;;10.94;50.00;101922.75;4954180;28;20047;-58
2021/04/15 00:40:21;;;;;;;7.70;6.88;;;;;;;10.91;50.00;101914.13;4954477;28;20043;-58
2021/04/15 00:42:47;;;;;;;8.98;6.53;;;;;;;10.88;50.08;101912.47;4954313;28;20047;-59
2021/04/15 00:45:19;;;;;;;7.78;6.43;;;;;;;10.86;50.29;101905.56;4954369;28;20102;-58
2021/04/15 00:48:08;;;;;;;8.00;6.28;;;;;;;10.84;50.25;101904.75;4954369;28;20051;-59
2021/04/15 00:50:42;;;;;;;7.63;6.78;;;;;;;10.83;50.19;101897.78;4954563;28;20055;-59
2021/04/15 00:53:13;;;;;;;8.60;7.28;;;;;;;10.83;50.05;101908.28;4954046;28;20127;-59
2021/04/15 00:55:39;;;;;;;9.00;6.90;;;;;;;10.80;50.05;101901.41;4954291;28;20039;-58
2021/04/15 00:58:06;;;;;;;10.18;7.32;;;;;;;10.78;50.05;101895.38;4954073;28;20058;-58
2021/04/15 01:00:33;;;;;;;11.07;7.32;;;;;;;10.78;49.99;101898.00;4954236;28;20051;-60
2021/04/15 01:03:02;;;;;;;9.55;7.22;;;;;;;10.75;50.04;101895.47;4953951;28;20113;-59
2021/04/15 01:05:33;;;;;;;10.63;7.50;;;;;;;10.72;50.12;101896.44;4954039;28;20047;-59
2021/04/15 01:08:00;;;;;;;13.25;9.07;;;;;;;10.71;50.11;101888.63;4953871;28;20125;-58
2021/04/15 01:10:29;;;;;;;13.60;8.82;;;;;;;10.69;50.13;101898.31;4954045;28;20048;-59
2021/04/15 01:13:15;;;;;;;11.32;7.70;;;;;;;10.66;50.15;101899.31;4954025;28;20144;-60
2021/04/15 01:15:55;;;;;;;12.20;7.40;;;;;;;10.65;50.14;101899.38;4953951;28;20562;-58
2021/04/15 01:18:43;;;;;;;11.18;7.30;;;;;;;10.64;49.97;101895.03;4954331;28;20051;-58
2021/04/15 01:21:27;;;;;;;16.02;8.05;;;;;;;10.62;49.98;101895.09;4954012;28;20625;-58
2021/04/15 01:24:04;;;;;;;11.80;7.70;;;;;;;10.60;49.93;101895.16;4954000;28;20054;-58
2021/04/15 01:27:06;;;;;;;14.05;7.68;;;;;;;10.58;49.78;101889.09;4953928;28;20058;-59
2021/04/15 01:29:50;;;;;;;10.80;7.18;;;;;;;10.57;49.90;101894.41;4954170;28;20043;-58
2021/04/15 01:32:29;;;;;;;10.20;7.18;;;;;;;10.55;49.82;101899.72;4953704;28;20051;-59
2021/04/15 01:35:01;;;;;;;10.88;6.75;;;;;;;10.53;49.83;101895.44;4953794;28;20055;-58
2021/04/15 01:37:51;;;;;;;11.10;7.57;;;;;;;10.50;49.68;101899.03;4953778;28;20196;-59
2021/04/15 01:40:26;;;;;;;9.90;7.05;;;;;;;10.49;49.72;101899.97;4953819;28;20051;-59
2021/04/15 01:43:14;;;;;;;8.45;6.85;;;;;;;10.49;49.62;101893.84;4956195;28;20487;-59
2021/04/15 01:45:44;;;;;;;9.77;6.40;;;;;;;10.48;49.54;101894.78;4957645;28;20043;-58
2021/04/15 01:48:16;;;;;;;14.80;6.40;;;;;;;10.45;49.72;101886.09;4957462;28;20059;-58
2021/04/15 01:50:47;;;;;;;11.25;7.15;;;;;;;10.45;49.61;101888.72;4957597;28;20047;-58
2021/04/15 01:53:19;;;;;;;13.27;7.07;;;;;;;10.45;49.43;101887.88;4957141;28;20106;-60
2021/04/15 01:55:50;;;;;;;8.60;6.18;;;;;;;10.42;49.53;101888.84;4957520;28;20085;-59
2021/04/15 01:58:32;;;;;;;9.80;6.28;;;;;;;10.41;49.55;101894.13;4957282;28;20051;-58
2021/04/15 02:01:08;;;;;;;8.32;5.80;;;;;;;10.39;49.28;101888.09;4957383;28;20562;-58
2021/04/15 02:03:36;;;;;;;;;;;;;;;10.37;49.43;101895.16;4957538;28;20062;-59
2021/04/15 02:06:09;;;;;;;8.25;5.80;;;;;;;10.36;49.32;101896.94;4957318;28;19969;-58
2021/04/15 02:08:41;;;;;;;8.18;5.80;;;;;;;10.35;49.56;101894.31;4956865;28;20504;-58
2021/04/15 02:11:16;;;;;;;6.30;5.30;;;;;;;10.33;49.49;101894.38;4957274;28;20070;-58
2021/04/15 02:13:44;;;;;;;8.18;6.18;;;;;;;10.32;49.45;101904.94;4957144;28;20760;-58
2021/04/15 02:16:17;;;;;;;8.55;5.40;;;;;;;10.30;49.65;101913.72;4957048;28;20043;-58
2021/04/15 02:18:52;;;;;;;7.05;5.13;;;;;;;10.28;49.74;101912.94;4956923;28;20067;-58
2021/04/15 02:21:43;;;;;;;6.95;5.78;;;;;;;10.27;49.71;101911.22;4957067;28;20551;-59
2021/04/15 02:24:25;;;;;;;8.80;5.35;;;;;;;10.27;49.75;101918.22;4956711;28;20491;-59
2021/04/15 02:27:00;;;;;;;9.07;5.97;;;;;;;10.26;49.66;101914.75;4956953;28;20062;-58
2021/04/15 02:29:27;;;;;;;8.20;5.50;;;;;;;10.24;49.57;101913.94;4956045;28;20102;-58
2021/04/15 02:32:25;;;;;;;8.10;5.40;;;;;;;10.21;49.43;101908.81;4957060;28;20054;-58
2021/04/15 02:34:59;;;;;;;7.38;5.63;;;;;;;10.19;49.49;101915.88;4956457;29;20051;-59
2021/04/15 02:37:40;;;;;;;6.50;5.28;;;;;;;10.16;49.59;101917.75;4956756;28;20059;-59
2021/04/15 02:40:12;;;;;;;7.65;5.38;;;;;;;10.11;49.70;101910.06;4956694;28;20050;-58
2021/04/15 02:42:41;;;;;;;7.85;5.68;;;;;;;10.06;50.06;101910.22;4956712;28;20075;-58
2021/04/15 02:45:32;;;;;;;7.32;5.97;;;;;;;10.01;50.14;101913.94;4956390;28;20396;-58
2021/04/15 02:48:06;;;;;;;7.93;6.18;;;;;;;9.97;50.40;101919.25;4956491;28;20050;-59
2021/04/15 02:50:34;;;;;;;7.22;5.55;;;;;;;9.90;50.50;101920.41;4956692;28;20046;-58
2021/04/15 02:53:09;;;;;;;9.18;5.97;;;;;;;9.85;50.76;101926.69;4955833;28;20102;-58
2021/04/15 02:55:42;;;;;;;8.98;6.57;;;;;;;9.83;51.10;101924.13;4956588;28;20043;-59
2021/04/15 02:58:18;;;;;;;9.02;5.88;;;;;;;9.81;51.29;101915.47;4956143;28;20051;-58
2021/04/15 03:00:48;;;;;;;9.65;6.03;;;;;;;9.78;51.69;101910.34;4956330;28;20051;-58
2021/04/15 03:03:19;;;;;;;9.77;6.30;;;;;;;9.77;51.57;101911.25;4952179;28;20467;-58
2021/04/15 03:05:50;;;;;;;10.00;6.65;;;;;;;9.75;51.85;101907.81;4953076;28;20051;-59
2021/04/15 03:08:19;;;;;;;7.82;6.28;;;;;;;9.74;52.08;101908.75;4952645;28;20510;-59
2021/04/15 03:10:50;;;;;;;8.85;6.93;;;;;;;9.74;52.13;101912.19;4952847;28;20504;-58
2021/04/15 03:13:22;;;;;;;8.35;6.53;;;;;;;9.72;52.24;101914.00;4952674;28;20117;-60
2021/04/15 03:15:53;;;;;;;9.13;6.43;;;;;;;9.72;52.57;101910.53;4952867;28;20126;-59
2021/04/15 03:18:29;;;;;;;9.73;6.22;;;;;;;9.71;52.39;101903.59;4952506;28;20106;-59
2021/04/15 03:21:08;;;;;;;;;;;;;;;9.71;52.55;101908.81;4953153;28;20055;-60
2021/04/15 03:23:58;;;;;;;8.98;6.30;;;;;;;9.72;52.39;101907.91;4952474;28;19977;-59
2021/04/15 03:26:29;;;;;;;7.78;6.35;;;;;;;9.70;52.23;101907.97;4952575;28;20055;-61
2021/04/15 03:29:28;;;;;;;8.32;6.32;;;;;;;9.70;52.11;101901.88;4952410;28;20055;-58
2021/04/15 03:32:35;;;;;;;8.85;6.28;;;;;;;9.71;52.01;101904.44;4952632;28;20082;-59
2021/04/15 03:35:04;;;;;;;;;;;;;;;9.71;51.74;101900.97;4930894;28;20055;-59
2021/04/15 03:37:40;;;;;;;8.65;6.53;;;;;;;9.73;51.82;101901.78;4952201;28;19926;-59
2021/04/15 03:40:09;;;;;;;9.05;6.45;;;;;;;9.72;51.61;101908.78;4952616;28;20106;-59
2021/04/15 03:42:44;;;;;;;7.63;6.18;;;;;;;9.71;51.42;101901.81;4952643;28;20059;-58
2021/04/15 03:45:19;;;;;;;8.90;6.83;;;;;;;9.70;51.74;101909.72;4952180;28;20051;-58
2021/04/15 03:47:53;;;;;;;9.13;5.97;;;;;;;9.69;51.74;101908.00;4952431;28;20054;-59
2021/04/15 03:50:23;;;;;;;10.35;6.10;;;;;;;9.70;51.75;101907.09;4952278;28;20110;-59
2021/04/15 03:52:57;;;;;;;8.15;6.63;;;;;;;9.69;51.66;101902.78;4951886;28;20054;-59
2021/04/15 03:55:55;;;;;;;9.98;6.60;;;;;;;9.70;51.41;101905.38;4952158;28;20559;-59
2021/04/15 03:58:28;;;;;;;9.90;6.25;;;;;;;9.71;51.12;101904.44;4931018;29;20051;-59
2021/04/15 04:01:05;;;;;;;9.00;6.05;;;;;;;9.72;51.04;101903.53;4951947;28;20043;-59
2021/04/15 04:03:33;;;;;;;8.60;6.72;;;;;;;9.72;51.13;101900.06;4951595;28;20047;-59
2021/04/15 04:06:07;;;;;;;9.52;6.72;;;;;;;9.72;50.97;101908.78;4951035;28;20492;-59
2021/04/15 04:08:44;;;;;;;9.15;6.60;;;;;;;9.73;51.06;101907.03;4951821;28;20051;-58
2021/04/15 04:11:14;;;;;;;10.02;6.95;;;;;;;9.73;51.27;101907.03;4951710;28;20415;-59
2021/04/15 04:13:46;;;;;;;9.63;7.15;;;;;;;9.74;51.34;101908.75;4951741;28;20055;-60
2021/04/15 04:16:27;;;;;;;8.48;6.63;;;;;;;9.73;51.21;101910.47;4951488;28;20046;-62
2021/04/15 04:19:26;;;;;;;10.38;7.32;;;;;;;9.74;51.30;101909.59;4951810;28;20043;-59
2021/04/15 04:22:13;;;;;;;10.98;6.95;;;;;;;9.74;51.33;101906.97;4951530;28;20051;-59
2021/04/15 04:25:01;;;;;;;10.68;8.18;;;;;;;9.74;51.24;101914.81;4941090;29;20086;-59
2021/04/15 04:27:36;;;;;;;10.63;7.60;;;;;;;9.74;51.31;101921.84;4951367;28;20051;-59
2021/04/15 04:30:32;;;;;;;9.52;7.97;;;;;;;9.74;51.20;101924.47;4951785;28;20051;-59
2021/04/15 04:33:00;;;;;;;;;;;;;;;9.72;51.53;101921.88;4951069;29;20098;-59
2021/04/15 04:35:31;;;;;;;11.02;7.30;;;;;;;9.71;51.41;101933.25;4951643;28;19930;-58
2021/04/15 04:38:01;;;;;;;10.15;7.47;;;;;;;9.70;51.45;101921.09;4950926;28;20055;-60
2021/04/15 04:40:52;;;;;;;10.18;7.88;;;;;;;9.70;51.51;101933.31;4951292;28;20043;-60
2021/04/15 04:43:23;;;;;;;10.55;7.30;;;;;;;9.69;51.65;101929.84;4950879;28;20448;-61
2021/04/15 04:45:51;;;;;;;10.25;7.95;;;;;;;9.69;51.79;101936.84;4951278;28;20082;-61
2021/04/15 04:48:38;;;;;;;9.98;7.78;;;;;;;9.68;51.83;101935.16;4950951;28;20043;-60
2021/04/15 04:51:11;;;;;;;11.02;7.75;;;;;;;9.67;51.94;101942.13;4949128;28;20051;-61
2021/04/15 04:53:43;;;;;;;10.68;8.38;;;;;;;9.67;51.91;101942.13;4950892;28;20043;-61
2021/04/15 04:56:33;;;;;;;11.07;8.07;;;;;;;9.68;51.83;101951.72;4950909;28;20066;-62
2021/04/15 04:59:09;;;;;;;11.40;7.85;;;;;;;9.69;51.96;101952.56;4942978;28;20115;-64
2021/04/15 05:01:36;;;;;;;10.85;8.38;;;;;;;9.71;52.14;101942.91;4934449;29;20097;-62
2021/04/15 05:04:09;;;;;;;13.02;8.65;;;;;;;9.72;51.84;101949.84;4938855;29;20050;-64
2021/04/15 05:06:43;;;;;;;10.93;8.00;;;;;;;9.74;51.78;101955.91;4950024;28;20051;-63
2021/04/15 05:09:25;;;;;;;10.63;7.63;;;;;;;9.74;51.75;101953.31;4950701;28;20048;-63
2021/04/15 05:11:52;;;;;;;11.05;8.32;;;;;;;9.76;51.73;101962.81;4948105;28;20054;-64
2021/04/15 05:14:22;;;;;;;10.02;7.85;;;;;;;9.78;51.53;101966.22;4950668;28;20047;-63
2021/04/15 05:16:48;;;;;;;9.25;7.82;;;;;;;9.81;51.58;101965.28;4950788;28;20051;-63
2021/04/15 05:19:16;;;;;;;11.40;7.90;;;;;;;9.83;51.77;101967.84;4950510;28;20054;-62
2021/04/15 05:21:44;;;;;;;12.70;7.85;;;;;;;9.86;51.54;101971.22;4950614;28;20047;-63
2021/04/15 05:24:19;;;;;;;10.88;7.68;;;;;;;9.90;51.50;101969.34;4950596;28;20451;-63
2021/04/15 05:26:48;;;;;;;10.15;7.38;;;;;;;9.95;51.53;101967.41;4950752;28;20618;-63
2021/04/15 05:29:22;;;;;;;11.85;7.72;;;;;;;9.99;51.42;101963.78;4950310;28;20555;-63
2021/04/15 05:31:52;;;;;;;11.32;7.65;;;;;;;10.01;51.41;101967.22;4950268;28;20047;-63
2021/04/15 05:34:25;;;;;;;8.70;6.43;;;;;;;10.04;51.27;101968.88;4950427;28;20050;-62
2021/04/15 05:36:55;;;;;;;9.50;5.90;;;;;;;10.05;51.08;101960.94;4950277;28;20043;-65
2021/04/15 05:39:23;;;;;;;9.43;6.30;;;;;;;10.06;51.25;101965.28;4950125;28;20047;-64
2021/04/15 05:42:05;;;;;;;7.63;5.18;;;;;;;10.07;51.07;101963.53;4950423;28;20051;-63
2021/04/15 05:44:45;;;;;;;7.40;5.22;;;;;;;10.06;50.78;101960.03;4950590;28;20110;-63
2021/04/15 05:47:36;;;;;;;23.27;3.83;;;;;;;10.16;53.00;101967.56;4950400;28;20063;-66
2021/04/15 05:50:07;;;;;;;10.57;4.55;;;;;;;10.28;54.75;101962.78;4934608;29;20048;-63
2021/04/15 05:52:40;;;;;;;6.72;4.75;;;;;;;10.28;54.12;101970.66;4938771;29;20043;-63
2021/04/15 05:55:44;;;;;;;6.55;4.65;;;;;;;10.20;53.01;101961.34;4941715;29;20047;-64
2021/04/15 05:58:18;;;;;;;6.10;4.00;;;;;;;10.17;52.08;101966.69;4913148;29;20501;-63
2021/04/15 06:00:49;;;;;;;5.90;4.05;;;;;;;10.16;51.69;101967.56;4935904;29;20098;-66
2021/04/15 06:03:33;;;;;;;5.50;3.75;;;;;;;10.16;51.31;101964.97;4950060;28;20047;-65
2021/04/15 06:06:06;;;;;;;5.50;4.50;;;;;;;10.17;50.75;101969.31;4950408;28;20051;-64
2021/04/15 06:08:37;;;;;;;7.82;4.53;;;;;;;10.18;50.80;101969.25;4950472;28;20504;-64
2021/04/15 06:11:21;;;;;;;7.78;3.92;;;;;;;10.21;50.40;101971.78;4950437;28;20052;-64
2021/04/15 06:13:54;;;;;;;6.07;3.55;;;;;;;10.25;50.06;101967.28;4944346;28;20062;-64
2021/04/15 06:16:26;;;;;;;5.85;3.33;;;;;;;10.28;49.87;101969.78;4949228;28;20051;-64
2021/04/15 06:18:58;;;;;;;4.55;3.05;;;;;;;10.29;49.54;101977.59;4949738;28;20050;-64
2021/04/15 06:21:39;;;;;;;4.20;3.03;;;;;;;10.32;49.40;101970.53;4949927;28;20071;-65
2021/04/15 06:24:13;;;;;;;4.78;2.88;;;;;;;10.39;49.06;101967.66;4939345;28;20047;-65
2021/04/15 06:26:53;;;;;;;3.53;2.60;;;;;;;10.43;49.09;101977.13;4941042;29;20063;-63
2021/04/15 06:29:44;;;;;;;5.03;2.80;;;;;;;10.45;49.02;101974.47;4952189;28;20102;-64
2021/04/15 06:32:16;;;;;;;4.28;2.70;;;;;;;10.44;48.94;101965.72;4944610;28;20570;-64
2021/04/15 06:34:44;;;;;;;5.47;3.15;;;;;;;10.41;48.75;101973.72;4952653;28;20511;-64
2021/04/15 06:37:16;;;;;;;5.03;3.17;;;;;;;10.36;48.83;101980.91;4951343;28;20465;-63
2021/04/15 06:39:50;;;;;;;4.53;2.67;;;;;;;10.35;48.65;101978.28;4952975;28;20102;-67
2021/04/15 06:42:54;;;;;;;5.40;3.00;;;;;;;10.34;48.69;101974.81;4953113;28;20121;-67
2021/04/15 06:45:57;;;;;;;3.92;2.47;;;;;;;10.38;48.66;101986.94;4952169;28;20048;-64
2021/04/15 06:48:57;;;;;;;3.15;2.85;;;;;;;10.39;48.62;101983.41;4953230;28;20166;-65
2021/04/15 06:51:42;;;;;;;5.20;2.78;;;;;;;10.46;48.59;101989.28;4952305;28;20085;-64
2021/04/15 06:54:35;;;;;;;4.93;2.90;;;;;;;10.51;48.64;101979.47;4952243;28;20047;-64
2021/04/15 06:57:15;;;;;;;3.97;2.75;;;;;;;10.56;49.01;101976.69;4952743;28;20050;-63
2021/04/15 07:00:04;;;;;;;5.72;2.90;;;;;;;10.55;49.39;101988.97;4952744;28;20043;-63
2021/04/15 07:02:36;;;;;;;4.55;2.55;;;;;;;10.53;49.83;101984.69;4952919;28;20051;-64
2021/04/15 07:05:09;;;;;;;5.72;3.10;;;;;;;10.48;50.10;101987.47;4952347;28;20566;-65
2021/04/15 07:07:40;;;;;;;8.60;3.03;;;;;;;10.42;50.73;101990.31;4952734;28;20555;-64
2021/04/15 07:10:24;;;;;;;7.97;2.80;;;;;;;10.38;51.19;101992.19;4946753;28;20063;-63
2021/04/15 07:13:19;;;;;;;5.13;3.10;;;;;;;10.35;51.46;101994.03;4938283;29;20055;-63
2021/04/15 07:16:04;;;;;;;4.15;2.80;;;;;;;10.34;51.78;101992.34;4951646;29;20051;-64
2021/04/15 07:18:45;;;;;;;5.22;2.63;;;;;;;10.30;52.01;102000.28;4952422;28;20051;-64
2021/04/15 07:21:28;;;;;;;5.05;3.15;;;;;;;10.30;52.28;101997.66;4952370;28;20047;-64
2021/04/15 07:24:09;;;;;;;4.50;2.63;;;;;;;10.29;52.58;102009.06;4952109;28;20050;-64
2021/04/15 07:26:54;;;;;;;3.20;2.20;;;;;;;10.30;52.50;102009.94;4952181;28;20059;-64
2021/04/15 07:29:35;;;;;;;5.25;2.95;;;;;;;10.32;52.32;102007.25;4951728;29;20051;-64
2021/04/15 07:32:04;;;;;;;2.95;2.60;;;;;;;10.33;52.75;102007.19;4952261;28;20051;-64
2021/04/15 07:34:52;;;;;;;11.15;2.67;;;;;;;10.35;53.12;102008.00;4952351;28;20082;-63
2021/04/15 07:38:02;;;;;;;4.35;2.55;;;;;;;10.37;53.67;102008.00;4951822;28;20075;-64
2021/04/15 07:40:47;;;;;;;4.13;2.70;;;;;;;10.43;53.92;102011.25;4951126;28;20039;-65
2021/04/15 07:43:47;;;;;;;4.05;2.83;;;;;;;10.51;53.72;102010.97;4951850;28;20043;-68
2021/04/15 07:46:25;;;;;;;7.65;3.10;;;;;;;10.66;53.54;102009.56;4951739;28;20051;-64
2021/04/15 07:48:57;;;;;;;3.95;2.60;;;;;;;10.83;53.27;101995.81;4952062;28;20047;-72
2021/04/15 07:51:55;;;;;;;4.35;2.65;;;;;;;11.09;52.79;102007.09;4951813;28;20180;-67
2021/04/15 07:54:24;;;;;;;4.38;2.95;;;;;;;11.34;52.22;102007.00;4951688;28;20563;-65
2021/04/15 07:57:20;;;;;;;4.18;2.80;;;;;;;11.53;51.45;102007.13;4951763;28;20055;-64
2021/04/15 08:00:29;;;;;;;3.13;2.83;;;;;;;11.82;50.63;102007.72;4951700;28;20054;-67
2021/04/15 08:03:17;;;;;;;2.33;1.92;;;;;;;12.00;50.15;102006.09;4946035;29;20059;-66
2021/04/15 08:05:51;;;;;;;3.50;2.35;;;;;;;11.96;49.99;102014.19;4951426;28;20110;-66
2021/04/15 08:08:45;;;;;;;3.42;2.63;;;;;;;11.86;48.84;102013.66;4951512;28;20055;-65
2021/04/15 08:11:32;;;;;;;4.82;2.28;;;;;;;11.77;48.56;102017.56;4951659;28;20051;-64
2021/04/15 08:14:05;;;;;;;1.92;1.20;;;;;;;11.73;48.89;102021.22;4946355;28;20083;-64
2021/04/15 08:17:08;;;;;;;4.25;2.25;;;;;;;11.84;51.20;102026.88;4939119;28;20118;-64
2021/04/15 08:19:56;;;;;;;4.75;2.30;;;;;;;11.69;50.09;102032.78;4932178;29;20052;-63
2021/04/15 08:22:54;;;;;;;3.33;2.40;;;;;;;11.56;49.74;102037.69;4940021;29;20120;-64
2021/04/15 08:25:40;;;;;;;3.33;2.90;;;;;;;11.42;49.65;102033.81;4929844;29;20076;-64
2021/04/15 08:28:16;;;;;;;3.42;2.90;;;;;;;11.31;49.85;102048.31;4951435;28;20460;-63
2021/04/15 08:30:42;;;;;;;;;;;;;;;11.23;49.94;102054.69;4951301;28;20484;-64
2021/04/15 08:33:23;;;;;;;3.78;3.17;;;;;;;11.16;50.91;102055.88;4939380;28;19930;-63
2021/04/15 08:35:49;;;;;;;5.85;2.75;;;;;;;11.06;51.39;102075.53;4939791;29;20078;-63
2021/04/15 08:38:43;;;;;;;2.92;2.40;;;;;;;10.97;51.75;102078.47;4948894;28;20043;-65
2021/04/15 08:41:40;;;;;;;7.47;2.17;;;;;;;10.90;51.53;102081.31;4947725;29;20043;-63
2021/04/15 08:44:09;;;;;;;5.55;2.72;;;;;;;10.83;52.29;102092.97;4949080;29;20456;-63
2021/04/15 08:46:46;;;;;;;2.95;2.05;;;;;;;10.78;52.67;102087.03;4945918;29;20043;-63
2021/04/15 08:49:33;;;;;;;2.88;2.40;;;;;;;10.72;53.57;102089.88;4948134;29;20044;-64
2021/04/15 08:52:22;;;;;;;3.85;2.40;;;;;;;10.66;55.02;102084.84;4948169;28;20059;-68
2021/04/15 08:55:07;;;;;;;4.22;1.70;;;;;;;10.53;55.60;102076.53;4948460;28;20047;-65
2021/04/15 08:57:51;;;;;;;4.28;1.70;;;;;;;10.40;56.39;102076.97;4948733;29;20109;-64
2021/04/15 09:00:42;;;;;;;2.33;1.35;;;;;;;10.34;57.12;102073.66;4950566;28;20488;-66
2021/04/15 09:03:39;;;;;;;3.78;1.80;;;;;;;10.29;57.74;102079.91;4950127;28;20046;-63
2021/04/15 09:06:17;;;;;;;2.20;1.67;;;;;;;10.24;58.06;102081.84;4937468;28;20146;-65
2021/04/15 09:09:03;;;;;;;3.10;2.10;;;;;;;10.22;58.42;102081.03;4947363;28;20047;-66
2021/04/15 09:11:48;;;;;;;4.45;2.00;;;;;;;10.23;58.51;102087.13;4949939;29;20105;-65
2021/04/15 09:14:30;;;;;;;2.25;1.67;;;;;;;10.23;58.86;102088.00;4949197;28;20047;-65
2021/04/15 09:17:12;;;;;;;3.97;1.80;;;;;;;10.25;59.12;102096.66;4950028;28;20052;-65
2021/04/15 09:19:47;;;;;;;1.20;1.10;;;;;;;10.26;58.99;102097.53;4939271;29;20071;-66
2021/04/15 09:22:38;;;;;;;2.33;1.50;;;;;;;10.30;59.09;102091.28;4948683;28;20043;-65
2021/04/15 09:25:06;;;;;;;1.45;1.30;;;;;;;10.39;59.47;102108.50;4948429;28;20054;-64
2021/04/15 09:27:38;;;;;;;2.15;1.33;;;;;;;10.45;59.38;102103.06;4949223;28;20070;-63
2021/04/15 09:30:21;;;;;;;3.05;1.40;;;;;;;10.52;59.10;102109.78;4947830;29;20060;-63
2021/04/15 09:33:07;;;;;;;1.10;0.93;;;;;;;10.62;59.03;102099.84;4949627;28;20051;-64
2021/04/15 09:36:16;;;;;;;2.45;1.63;;;;;;;10.73;58.97;102104.72;4948007;29;20066;-64
2021/04/15 09:38:52;;;;;;;1.15;0.90;;;;;;;10.84;58.63;102093.81;4948658;28;20051;-64
2021/04/15 09:41:33;;;;;;;2.05;1.38;;;;;;;10.94;58.60;102090.81;4949660;28;20047;-63
2021/04/15 09:44:20;;;;;;;1.27;1.00;;;;;;;11.06;58.78;102088.66;4940358;29;20055;-63
2021/04/15 09:46:55;;;;;;;2.83;1.10;;;;;;;11.10;58.54;102087.63;4949756;28;20058;-64
2021/04/15 09:49:39;;;;;;;2.17;1.40;;;;;;;11.22;58.25;102083.66;4949430;28;20492;-63
2021/04/15 09:52:28;;;;;;;1.60;1.30;;;;;;;11.38;57.94;102081.31;4944929;29;20051;-64
2021/04/15 09:55:19;;;;;;;2.67;1.42;;;;;;;11.56;57.39;102083.22;4943342;29;20397;-63
2021/04/15 09:58:25;;;;;;;3.45;1.67;;;;;;;11.69;56.83;102072.22;4947738;28;20047;-64
2021/04/15 10:00:58;;;;;;;1.80;1.50;;;;;;;11.84;56.38;102070.75;4947259;29;20050;-63
2021/04/15 10:03:39;;;;;;;2.97;1.45;;;;;;;11.99;55.77;102070.16;4950494;28;20055;-64
2021/04/15 10:06:18;;;;;;;2.22;1.38;;;;;;;12.19;55.10;102071.09;4952123;29;20464;-64
2021/04/15 10:08:59;;;;;;;1.48;1.10;;;;;;;12.39;54.27;102065.84;4952548;28;20051;-64
2021/04/15 10:14:43;;;;;;;2.78;1.02;;;;;;;12.74;52.70;102060.81;4947030;28;20049;-64
2021/04/15 10:17:19;;;;;;;2.03;1.10;;;;;;;12.94;52.05;102060.81;4949805;29;20073;-64
2021/04/15 10:20:03;;;;;;;1.13;1.00;;;;;;;13.07;51.54;102052.28;4949259;28;20461;-64
2021/04/15 10:23:09;;;;;;;2.47;1.35;;;;;;;13.22;50.97;102049.88;4952248;28;20043;-64
2021/04/15 10:25:56;;;;;;;2.40;1.42;;;;;;;13.51;50.43;102050.28;4951839;28;20047;-64
2021/04/15 10:28:39;;;;;;;1.65;1.27;;;;;;;13.66;50.46;102043.44;4952493;28;20107;-64
2021/04/15 10:31:42;;;;;;;2.05;1.35;;;;;;;13.68;50.28;102046.88;4938584;28;20059;-65
2021/04/15 10:34:46;;;;;;;2.83;1.85;;;;;;;13.85;49.82;102032.81;4946236;29;20051;-66
2021/04/15 10:37:41;;;;;;;5.07;3.10;;;;;;;13.97;49.37;102036.66;4943266;28;20051;-65
2021/04/15 10:40:50;;;;;;;2.50;1.55;;;;;;;14.16;48.94;102024.22;4952868;28;20047;-67
2021/04/15 10:43:58;;;;;;;2.47;1.23;;;;;;;14.22;48.14;102020.44;4952706;28;20043;-64
2021/04/15 10:46:57;;;;;;;1.90;1.25;;;;;;;14.28;47.14;102020.09;4948765;29;20126;-65
2021/04/15 10:49:33;;;;;;;1.83;1.23;;;;;;;14.43;46.86;102007.03;4945641;28;20078;-66
2021/04/15 10:52:13;;;;;;;32.80;17.35;;;;;;;14.58;46.36;102008.00;4952232;28;20047;-65
2021/04/15 10:54:44;;;;;;;3.40;1.52;;;;;;;14.84;46.55;102004.84;4952564;28;20055;-68
2021/04/15 10:57:30;;;;;;;2.17;1.42;;;;;;;15.10;45.51;101991.13;4943702;28;20873;-65
2021/04/15 11:00:21;;;;;;;33.50;13.32;;;;;;;15.39;46.55;101991.25;4952386;28;20098;-68
2021/04/15 11:03:13;;;;;;;18.80;7.68;;;;;;;15.75;48.93;101988.28;4952515;28;20047;-66
2021/04/15 11:05:43;;;;;;;14.07;7.40;;;;;;;16.12;51.37;101986.13;4940484;28;20098;-66
2021/04/15 11:08:18;;;;;;;16.02;6.68;;;;;;;16.40;52.09;101973.00;4944661;28;20048;-65
2021/04/15 11:10:47;;;;;;;14.97;6.03;;;;;;;16.64;53.53;101973.28;4948752;28;20058;-65
2021/04/15 11:13:24;;;;;;;15.48;5.88;;;;;;;16.84;52.84;101971.19;4932819;29;20374;-69
2021/04/15 11:15:55;;;;;;;4.13;2.03;;;;;;;16.57;51.15;101962.22;4936558;29;20054;-67
2021/04/15 11:18:58;;;;;;;3.30;1.83;;;;;;;16.78;44.83;101959.16;4951798;28;20051;-67
2021/04/15 11:21:34;;;;;;;7.15;1.90;;;;;;;16.89;42.34;101950.53;4941980;29;20051;-69
2021/04/15 11:24:26;;;;;;;3.47;1.77;;;;;;;16.99;40.74;101954.31;4949063;28;20416;-72
2021/04/15 11:27:00;;;;;;;3.63;1.52;;;;;;;17.09;39.55;101947.47;4932717;28;20048;-67
2021/04/15 11:29:43;;;;;;;4.57;1.88;;;;;;;17.16;38.04;101939.94;4949017;28;20047;-65
2021/04/15 11:32:38;;;;;;;1.50;1.20;;;;;;;17.26;37.29;101933.06;4941546;28;20079;-66
2021/04/15 11:35:16;;;;;;;1.77;1.42;;;;;;;17.42;36.51;101930.28;4951897;28;20154;-70
2021/04/15 11:37:45;;;;;;;4.75;2.10;;;;;;;17.58;36.51;101930.06;4951374;28;20039;-71
2021/04/15 11:40:34;;;;;;;4.57;2.03;;;;;;;17.70;35.94;101925.75;4941631;28;20047;-67
2021/04/15 11:43:13;;;;;;;3.45;1.50;;;;;;;17.74;35.71;101929.91;4946422;29;20366;-65
2021/04/15 11:45:40;;;;;;;2.92;1.70;;;;;;;17.75;34.81;101931.59;4951204;28;20067;-66
2021/04/15 11:48:28;;;;;;;2.55;1.58;;;;;;;17.79;34.48;101925.13;4951431;28;20047;-66
2021/04/15 11:51:20;;;;;;;3.13;1.90;;;;;;;17.88;33.38;101914.84;4951639;28;20043;-67
2021/04/15 11:53:55;;;;;;;3.13;1.92;;;;;;;17.90;33.23;101916.44;4951431;28;20059;-66
2021/04/15 11:56:24;;;;;;;3.38;2.00;;;;;;;17.94;32.77;101917.94;4951456;28;20488;-68
2021/04/15 11:59:12;;;;;;;3.22;1.90;;;;;;;18.06;32.51;101910.91;4951838;28;20097;-66
2021/04/15 12:01:38;;;;;;;4.85;2.42;;;;;;;18.21;32.48;101918.78;4945465;28;20043;-65
2021/04/15 12:04:06;;;;;;;2.95;1.73;;;;;;;18.29;32.04;101908.44;4951024;28;20070;-68
2021/04/15 12:06:40;;;;;;;2.10;1.65;;;;;;;18.42;31.33;101911.94;4951648;28;20043;-69
2021/04/15 12:09:13;;;;;;;4.32;1.67;;;;;;;18.38;31.78;101904.28;4951381;28;20126;-66
2021/04/15 12:11:54;;;;;;;2.63;1.90;;;;;;;18.30;32.14;101907.50;4951466;28;20086;-67
2021/04/15 12:14:21;;;;;;;1.88;1.60;;;;;;;18.11;32.14;101906.13;4950818;28;20050;-65
2021/04/15 12:16:52;;;;;;;2.15;1.88;;;;;;;17.66;32.60;101913.66;4943926;29;20087;-65
2021/04/15 12:19:22;;;;;;;3.63;2.22;;;;;;;17.30;32.92;101904.53;4951585;28;20464;-66
2021/04/15 12:22:26;;;;;;;4.55;2.10;;;;;;;16.97;34.18;101913.78;4951143;28;20055;-66
2021/04/15 12:25:00;;;;;;;3.28;1.90;;;;;;;16.74;34.52;101917.88;4943740;28;20051;-66